sensor_id;sensor_type;location;lat;lon;timestamp;temperature;humidity
77305;DHT22;66364;52.622;7.746;2023-06-22T00:01:22;19.50;99.90
77305;DHT22;66364;52.622;7.746;2023-06-22T00:03:25;19.10;99.90
77305;DHT22;66364;52.622;7.746;2023-06-22T00:05:26;19.40;99.90
77305;DHT22;66364;52.622;7.746;2023-06-22T00:07:29;19.40;99.90
77305;DHT22;66364;52.622;7.746;2023-06-22T00:09:32;19.40;99.90
77305;DHT22;66364;52.622;7.746;2023-06-22T00:11:34;19.60;99.90
77305;DHT22;66364;52.622;7.746;2023-06-22T00:13:37;19.30;99.90
77305;DHT22;66364;52.622;7.746;2023-06-22T00:15:41;19.40;99.90
77305;DHT22;66364;52.622;7.746;2023-06-22T00:17:45;19.40;99.90
77305;DHT22;66364;52.622;7.746;2023-06-22T00:19:48;19.30;99.90
77305;DHT22;66364;52.622;7.746;2023-06-22T00:21:50;19.30;99.90
77305;DHT22;66364;52.622;7.746;2023-06-22T00:23:53;19.30;99.90
77305;DHT22;66364;52.622;7.746;2023-06-22T00:25:56;19.30;99.90
77305;DHT22;66364;52.622;7.746;2023-06-22T00:27:59;19.20;99.90
77305;DHT22;66364;52.622;7.746;2023-06-22T00:30:02;19.20;99.90
77305;DHT22;66364;52.622;7.746;2023-06-22T00:32:06;19.20;99.90
77305;DHT22;66364;52.622;7.746;2023-06-22T00:34:08;19.10;99.90
77305;DHT22;66364;52.622;7.746;2023-06-22T00:36:11;19.10;99.90
77305;DHT22;66364;52.622;7.746;2023-06-22T00:38:14;19.10;99.90
77305;DHT22;66364;52.622;7.746;2023-06-22T00:40:16;19.10;99.90
77305;DHT22;66364;52.622;7.746;2023-06-22T00:42:19;19.00;99.90
77305;DHT22;66364;52.622;7.746;2023-06-22T00:44:22;19.00;99.90
77305;DHT22;66364;52.622;7.746;2023-06-22T00:46:25;19.00;99.90
77305;DHT22;66364;52.622;7.746;2023-06-22T00:48:27;18.90;99.90
77305;DHT22;66364;52.622;7.746;2023-06-22T00:50:32;18.80;99.90
77305;DHT22;66364;52.622;7.746;2023-06-22T00:52:35;18.60;99.90
77305;DHT22;66364;52.622;7.746;2023-06-22T00:54:38;18.70;99.90
77305;DHT22;66364;52.622;7.746;2023-06-22T00:56:41;18.80;99.90
77305;DHT22;66364;52.622;7.746;2023-06-22T00:58:45;18.70;99.90
77305;DHT22;66364;52.622;7.746;2023-06-22T01:00:48;18.70;99.90
77305;DHT22;66364;52.622;7.746;2023-06-22T01:02:52;18.70;99.90
77305;DHT22;66364;52.622;7.746;2023-06-22T01:04:54;18.70;99.90
77305;DHT22;66364;52.622;7.746;2023-06-22T01:09:19;18.60;99.90
77305;DHT22;66364;52.622;7.746;2023-06-22T01:11:25;18.50;99.90
77305;DHT22;66364;52.622;7.746;2023-06-22T01:13:35;18.50;99.90
77305;DHT22;66364;52.622;7.746;2023-06-22T01:15:45;18.50;99.90
77305;DHT22;66364;52.622;7.746;2023-06-22T01:17:49;18.40;99.90
77305;DHT22;66364;52.622;7.746;2023-06-22T01:19:55;18.30;99.90
77305;DHT22;66364;52.622;7.746;2023-06-22T01:21:59;18.40;99.90
77305;DHT22;66364;52.622;7.746;2023-06-22T01:24:45;18.30;99.90
77305;DHT22;66364;52.622;7.746;2023-06-22T01:26:22;18.30;99.90
77305;DHT22;66364;52.622;7.746;2023-06-22T01:28:52;18.30;99.90
77305;DHT22;66364;52.622;7.746;2023-06-22T01:30:51;18.20;99.90
77305;DHT22;66364;52.622;7.746;2023-06-22T01:33:01;18.20;99.90
77305;DHT22;66364;52.622;7.746;2023-06-22T01:35:07;18.10;99.90
77305;DHT22;66364;52.622;7.746;2023-06-22T01:37:11;17.80;99.90
77305;DHT22;66364;52.622;7.746;2023-06-22T01:39:15;18.00;99.90
77305;DHT22;66364;52.622;7.746;2023-06-22T01:41:19;17.90;99.90
77305;DHT22;66364;52.622;7.746;2023-06-22T01:43:24;18.00;99.90
77305;DHT22;66364;52.622;7.746;2023-06-22T01:45:27;18.00;99.90
77305;DHT22;66364;52.622;7.746;2023-06-22T01:47:31;18.00;99.90
77305;DHT22;66364;52.622;7.746;2023-06-22T01:49:34;18.00;99.90
77305;DHT22;66364;52.622;7.746;2023-06-22T01:51:37;17.90;99.90
77305;DHT22;66364;52.622;7.746;2023-06-22T01:53:40;17.90;99.90
77305;DHT22;66364;52.622;7.746;2023-06-22T01:55:42;17.80;99.90
77305;DHT22;66364;52.622;7.746;2023-06-22T01:57:45;17.80;99.90
77305;DHT22;66364;52.622;7.746;2023-06-22T02:00:11;17.80;99.90
77305;DHT22;66364;52.622;7.746;2023-06-22T02:02:12;17.80;99.90
77305;DHT22;66364;52.622;7.746;2023-06-22T02:04:24;17.80;99.90
77305;DHT22;66364;52.622;7.746;2023-06-22T02:06:34;17.80;99.90
77305;DHT22;66364;52.622;7.746;2023-06-22T02:08:38;17.70;99.90
77305;DHT22;66364;52.622;7.746;2023-06-22T02:10:41;17.70;99.90
77305;DHT22;66364;52.622;7.746;2023-06-22T02:12:46;17.70;99.90
77305;DHT22;66364;52.622;7.746;2023-06-22T02:14:51;17.70;99.90
77305;DHT22;66364;52.622;7.746;2023-06-22T02:16:54;17.60;99.90
77305;DHT22;66364;52.622;7.746;2023-06-22T02:18:57;17.70;99.90
77305;DHT22;66364;52.622;7.746;2023-06-22T02:21:02;17.70;99.90
77305;DHT22;66364;52.622;7.746;2023-06-22T02:23:06;17.70;99.90
77305;DHT22;66364;52.622;7.746;2023-06-22T02:25:08;17.90;99.90
77305;DHT22;66364;52.622;7.746;2023-06-22T02:27:11;17.60;99.90
77305;DHT22;66364;52.622;7.746;2023-06-22T02:29:14;17.60;99.90
77305;DHT22;66364;52.622;7.746;2023-06-22T02:31:17;17.60;99.90
77305;DHT22;66364;52.622;7.746;2023-06-22T02:33:19;17.60;99.90
77305;DHT22;66364;52.622;7.746;2023-06-22T02:35:22;17.60;99.90
77305;DHT22;66364;52.622;7.746;2023-06-22T02:37:25;17.60;99.90
77305;DHT22;66364;52.622;7.746;2023-06-22T02:39:28;17.60;99.90
77305;DHT22;66364;52.622;7.746;2023-06-22T02:41:31;17.60;99.90
77305;DHT22;66364;52.622;7.746;2023-06-22T02:43:34;17.60;99.90
77305;DHT22;66364;52.622;7.746;2023-06-22T02:45:36;17.60;99.90
77305;DHT22;66364;52.622;7.746;2023-06-22T02:47:39;17.50;99.90
77305;DHT22;66364;52.622;7.746;2023-06-22T02:49:42;17.50;99.90
77305;DHT22;66364;52.622;7.746;2023-06-22T02:51:46;17.50;99.90
77305;DHT22;66364;52.622;7.746;2023-06-22T02:53:49;17.50;99.90
77305;DHT22;66364;52.622;7.746;2023-06-22T02:55:52;17.50;99.90
77305;DHT22;66364;52.622;7.746;2023-06-22T02:57:54;17.50;99.90
77305;DHT22;66364;52.622;7.746;2023-06-22T02:59:57;17.60;99.90
77305;DHT22;66364;52.622;7.746;2023-06-22T03:02:00;17.60;99.90
77305;DHT22;66364;52.622;7.746;2023-06-22T03:04:03;17.60;99.90
77305;DHT22;66364;52.622;7.746;2023-06-22T03:06:12;17.70;99.90
77305;DHT22;66364;52.622;7.746;2023-06-22T03:08:15;17.50;99.90
77305;DHT22;66364;52.622;7.746;2023-06-22T03:10:18;17.60;99.90
77305;DHT22;66364;52.622;7.746;2023-06-22T03:12:20;17.50;99.90
77305;DHT22;66364;52.622;7.746;2023-06-22T03:14:23;17.50;99.90
77305;DHT22;66364;52.622;7.746;2023-06-22T03:16:26;17.60;99.90
77305;DHT22;66364;52.622;7.746;2023-06-22T03:18:29;17.60;99.90
77305;DHT22;66364;52.622;7.746;2023-06-22T03:20:31;17.60;99.90
77305;DHT22;66364;52.622;7.746;2023-06-22T03:22:38;17.60;99.90
77305;DHT22;66364;52.622;7.746;2023-06-22T03:24:41;17.50;99.90
77305;DHT22;66364;52.622;7.746;2023-06-22T03:26:44;17.50;99.90
77305;DHT22;66364;52.622;7.746;2023-06-22T03:28:46;17.50;99.90
77305;DHT22;66364;52.622;7.746;2023-06-22T03:30:49;17.50;99.90
77305;DHT22;66364;52.622;7.746;2023-06-22T03:32:52;17.60;99.90
77305;DHT22;66364;52.622;7.746;2023-06-22T03:34:54;17.50;99.90
77305;DHT22;66364;52.622;7.746;2023-06-22T03:36:57;17.40;99.90
77305;DHT22;66364;52.622;7.746;2023-06-22T03:39:00;17.50;99.90
77305;DHT22;66364;52.622;7.746;2023-06-22T03:41:02;17.40;99.90
77305;DHT22;66364;52.622;7.746;2023-06-22T03:43:05;17.40;99.90
77305;DHT22;66364;52.622;7.746;2023-06-22T03:45:09;17.40;99.90
77305;DHT22;66364;52.622;7.746;2023-06-22T03:47:12;17.40;99.90
77305;DHT22;66364;52.622;7.746;2023-06-22T03:49:18;17.50;99.90
77305;DHT22;66364;52.622;7.746;2023-06-22T03:51:21;17.50;99.90
77305;DHT22;66364;52.622;7.746;2023-06-22T03:53:23;17.50;99.90
77305;DHT22;66364;52.622;7.746;2023-06-22T03:55:26;17.50;99.90
77305;DHT22;66364;52.622;7.746;2023-06-22T03:57:29;17.60;99.90
77305;DHT22;66364;52.622;7.746;2023-06-22T03:59:31;17.70;99.90
77305;DHT22;66364;52.622;7.746;2023-06-22T04:01:35;17.30;99.90
77305;DHT22;66364;52.622;7.746;2023-06-22T04:03:38;17.50;99.90
77305;DHT22;66364;52.622;7.746;2023-06-22T04:05:42;17.50;99.90
77305;DHT22;66364;52.622;7.746;2023-06-22T04:07:44;17.60;99.90
77305;DHT22;66364;52.622;7.746;2023-06-22T04:09:54;17.60;99.90
77305;DHT22;66364;52.622;7.746;2023-06-22T04:11:57;17.60;99.90
77305;DHT22;66364;52.622;7.746;2023-06-22T04:14:00;17.70;99.90
77305;DHT22;66364;52.622;7.746;2023-06-22T04:16:03;17.60;99.90
77305;DHT22;66364;52.622;7.746;2023-06-22T04:18:05;17.70;99.90
77305;DHT22;66364;52.622;7.746;2023-06-22T04:20:08;17.70;99.90
77305;DHT22;66364;52.622;7.746;2023-06-22T04:22:11;17.60;99.90
77305;DHT22;66364;52.622;7.746;2023-06-22T04:24:14;17.60;99.90
77305;DHT22;66364;52.622;7.746;2023-06-22T04:26:24;17.60;99.90
77305;DHT22;66364;52.622;7.746;2023-06-22T04:28:26;17.60;99.90
77305;DHT22;66364;52.622;7.746;2023-06-22T04:30:29;17.60;99.90
77305;DHT22;66364;52.622;7.746;2023-06-22T04:32:35;17.60;99.90
77305;DHT22;66364;52.622;7.746;2023-06-22T04:34:38;17.70;99.90
77305;DHT22;66364;52.622;7.746;2023-06-22T04:36:41;17.40;99.90
77305;DHT22;66364;52.622;7.746;2023-06-22T04:38:55;17.80;99.90
77305;DHT22;66364;52.622;7.746;2023-06-22T04:40:57;18.00;99.90
77305;DHT22;66364;52.622;7.746;2023-06-22T04:43:00;17.80;99.90
77305;DHT22;66364;52.622;7.746;2023-06-22T04:45:03;17.90;99.90
77305;DHT22;66364;52.622;7.746;2023-06-22T04:47:06;17.70;99.90
77305;DHT22;66364;52.622;7.746;2023-06-22T04:49:09;18.20;99.90
77305;DHT22;66364;52.622;7.746;2023-06-22T04:51:12;17.90;99.90
77305;DHT22;66364;52.622;7.746;2023-06-22T04:53:15;18.00;99.90
77305;DHT22;66364;52.622;7.746;2023-06-22T04:55:20;18.10;99.90
77305;DHT22;66364;52.622;7.746;2023-06-22T04:57:22;18.20;99.90
77305;DHT22;66364;52.622;7.746;2023-06-22T04:59:29;18.20;99.90
77305;DHT22;66364;52.622;7.746;2023-06-22T05:01:33;18.10;99.90
77305;DHT22;66364;52.622;7.746;2023-06-22T05:03:35;18.30;99.90
77305;DHT22;66364;52.622;7.746;2023-06-22T05:05:38;18.40;99.90
77305;DHT22;66364;52.622;7.746;2023-06-22T05:07:46;18.40;99.90
77305;DHT22;66364;52.622;7.746;2023-06-22T05:09:55;18.40;99.90
77305;DHT22;66364;52.622;7.746;2023-06-22T05:11:57;18.50;99.90
77305;DHT22;66364;52.622;7.746;2023-06-22T05:14:15;18.50;99.90
77305;DHT22;66364;52.622;7.746;2023-06-22T05:16:18;18.60;99.90
77305;DHT22;66364;52.622;7.746;2023-06-22T05:18:21;18.60;99.90
77305;DHT22;66364;52.622;7.746;2023-06-22T05:20:23;18.70;99.90
77305;DHT22;66364;52.622;7.746;2023-06-22T05:22:32;18.70;99.90
77305;DHT22;66364;52.622;7.746;2023-06-22T05:24:35;18.70;99.90
77305;DHT22;66364;52.622;7.746;2023-06-22T05:26:38;18.70;99.90
77305;DHT22;66364;52.622;7.746;2023-06-22T05:28:43;18.70;99.90
77305;DHT22;66364;52.622;7.746;2023-06-22T05:30:45;19.00;99.90
77305;DHT22;66364;52.622;7.746;2023-06-22T05:32:48;18.60;99.90
77305;DHT22;66364;52.622;7.746;2023-06-22T05:34:50;18.60;99.90
77305;DHT22;66364;52.622;7.746;2023-06-22T05:36:53;18.50;99.90
77305;DHT22;66364;52.622;7.746;2023-06-22T05:38:56;18.50;99.90
77305;DHT22;66364;52.622;7.746;2023-06-22T05:40:59;18.50;99.90
77305;DHT22;66364;52.622;7.746;2023-06-22T05:43:02;18.60;99.90
77305;DHT22;66364;52.622;7.746;2023-06-22T05:45:05;18.60;99.90
77305;DHT22;66364;52.622;7.746;2023-06-22T05:47:08;18.90;99.90
77305;DHT22;66364;52.622;7.746;2023-06-22T05:49:12;18.70;99.90
77305;DHT22;66364;52.622;7.746;2023-06-22T05:51:14;18.80;99.90
77305;DHT22;66364;52.622;7.746;2023-06-22T05:53:17;18.70;99.90
77305;DHT22;66364;52.622;7.746;2023-06-22T05:55:20;18.90;99.90
77305;DHT22;66364;52.622;7.746;2023-06-22T05:57:22;19.00;99.90
77305;DHT22;66364;52.622;7.746;2023-06-22T05:59:25;19.10;99.90
77305;DHT22;66364;52.622;7.746;2023-06-22T06:01:28;19.40;99.90
77305;DHT22;66364;52.622;7.746;2023-06-22T06:03:30;19.30;99.90
77305;DHT22;66364;52.622;7.746;2023-06-22T06:05:34;19.30;99.90
77305;DHT22;66364;52.622;7.746;2023-06-22T06:07:36;19.50;99.90
77305;DHT22;66364;52.622;7.746;2023-06-22T06:09:39;19.50;99.90
77305;DHT22;66364;52.622;7.746;2023-06-22T06:11:42;19.70;99.90
77305;DHT22;66364;52.622;7.746;2023-06-22T06:13:44;19.50;99.90
77305;DHT22;66364;52.622;7.746;2023-06-22T06:15:47;19.70;99.90
77305;DHT22;66364;52.622;7.746;2023-06-22T06:17:51;19.80;99.90
77305;DHT22;66364;52.622;7.746;2023-06-22T06:19:54;19.80;99.90
77305;DHT22;66364;52.622;7.746;2023-06-22T06:21:57;20.00;99.90
77305;DHT22;66364;52.622;7.746;2023-06-22T06:24:00;20.10;99.90
77305;DHT22;66364;52.622;7.746;2023-06-22T06:26:02;20.20;99.90
77305;DHT22;66364;52.622;7.746;2023-06-22T06:28:05;20.30;99.90
77305;DHT22;66364;52.622;7.746;2023-06-22T06:30:08;20.30;99.90
77305;DHT22;66364;52.622;7.746;2023-06-22T06:32:11;20.40;99.90
77305;DHT22;66364;52.622;7.746;2023-06-22T06:34:14;20.50;99.90
77305;DHT22;66364;52.622;7.746;2023-06-22T06:36:15;20.50;99.90
77305;DHT22;66364;52.622;7.746;2023-06-22T06:38:16;20.50;99.90
77305;DHT22;66364;52.622;7.746;2023-06-22T06:40:18;20.60;99.90
77305;DHT22;66364;52.622;7.746;2023-06-22T06:42:20;20.60;99.90
77305;DHT22;66364;52.622;7.746;2023-06-22T06:44:23;20.70;99.90
77305;DHT22;66364;52.622;7.746;2023-06-22T06:46:23;20.80;99.90
77305;DHT22;66364;52.622;7.746;2023-06-22T06:48:26;20.90;99.90
77305;DHT22;66364;52.622;7.746;2023-06-22T06:50:27;21.00;99.90
77305;DHT22;66364;52.622;7.746;2023-06-22T06:52:28;21.20;99.90
77305;DHT22;66364;52.622;7.746;2023-06-22T06:54:29;21.30;99.90
77305;DHT22;66364;52.622;7.746;2023-06-22T06:56:30;21.40;99.90
77305;DHT22;66364;52.622;7.746;2023-06-22T06:58:31;21.40;99.90
77305;DHT22;66364;52.622;7.746;2023-06-22T07:00:32;21.40;99.90
77305;DHT22;66364;52.622;7.746;2023-06-22T07:02:34;21.50;99.90
77305;DHT22;66364;52.622;7.746;2023-06-22T07:04:35;21.50;99.90
77305;DHT22;66364;52.622;7.746;2023-06-22T07:06:36;21.60;99.90
77305;DHT22;66364;52.622;7.746;2023-06-22T07:08:37;21.70;99.90
77305;DHT22;66364;52.622;7.746;2023-06-22T07:10:38;21.80;99.90
77305;DHT22;66364;52.622;7.746;2023-06-22T07:12:39;22.00;99.90
77305;DHT22;66364;52.622;7.746;2023-06-22T07:14:40;22.10;99.90
77305;DHT22;66364;52.622;7.746;2023-06-22T07:16:42;22.20;99.90
77305;DHT22;66364;52.622;7.746;2023-06-22T07:18:44;22.30;99.90
77305;DHT22;66364;52.622;7.746;2023-06-22T07:20:44;22.50;99.90
77305;DHT22;66364;52.622;7.746;2023-06-22T07:22:47;22.50;99.90
77305;DHT22;66364;52.622;7.746;2023-06-22T07:24:47;22.50;99.90
77305;DHT22;66364;52.622;7.746;2023-06-22T07:26:49;22.50;99.90
77305;DHT22;66364;52.622;7.746;2023-06-22T07:28:50;22.70;99.90
77305;DHT22;66364;52.622;7.746;2023-06-22T07:30:51;22.70;99.90
77305;DHT22;66364;52.622;7.746;2023-06-22T07:32:52;22.70;99.90
77305;DHT22;66364;52.622;7.746;2023-06-22T07:34:53;22.60;99.90
77305;DHT22;66364;52.622;7.746;2023-06-22T07:36:54;22.60;99.90
77305;DHT22;66364;52.622;7.746;2023-06-22T07:38:55;22.80;99.90
77305;DHT22;66364;52.622;7.746;2023-06-22T07:40:56;23.20;99.90
77305;DHT22;66364;52.622;7.746;2023-06-22T07:42:56;23.40;99.90
77305;DHT22;66364;52.622;7.746;2023-06-22T07:44:57;23.50;99.90
77305;DHT22;66364;52.622;7.746;2023-06-22T07:46:58;23.50;99.90
77305;DHT22;66364;52.622;7.746;2023-06-22T07:48:59;23.50;99.90
77305;DHT22;66364;52.622;7.746;2023-06-22T07:51:00;23.50;99.90
77305;DHT22;66364;52.622;7.746;2023-06-22T07:53:01;23.60;99.90
77305;DHT22;66364;52.622;7.746;2023-06-22T07:55:02;23.80;99.90
77305;DHT22;66364;52.622;7.746;2023-06-22T07:57:03;24.00;99.90
77305;DHT22;66364;52.622;7.746;2023-06-22T07:59:04;24.20;99.90
77305;DHT22;66364;52.622;7.746;2023-06-22T08:01:05;24.40;99.90
77305;DHT22;66364;52.622;7.746;2023-06-22T08:03:06;24.40;99.90
77305;DHT22;66364;52.622;7.746;2023-06-22T08:05:09;24.10;99.90
77305;DHT22;66364;52.622;7.746;2023-06-22T08:07:10;24.10;99.90
77305;DHT22;66364;52.622;7.746;2023-06-22T08:09:11;24.30;99.90
77305;DHT22;66364;52.622;7.746;2023-06-22T08:11:12;24.50;99.90
77305;DHT22;66364;52.622;7.746;2023-06-22T08:13:13;24.70;99.90
77305;DHT22;66364;52.622;7.746;2023-06-22T08:15:14;24.90;99.90
77305;DHT22;66364;52.622;7.746;2023-06-22T08:17:15;24.80;99.90
77305;DHT22;66364;52.622;7.746;2023-06-22T08:19:16;24.60;99.90
77305;DHT22;66364;52.622;7.746;2023-06-22T08:21:17;24.50;99.90
77305;DHT22;66364;52.622;7.746;2023-06-22T08:23:18;24.40;99.90
77305;DHT22;66364;52.622;7.746;2023-06-22T08:25:19;24.50;99.90
77305;DHT22;66364;52.622;7.746;2023-06-22T08:27:21;24.90;99.90
77305;DHT22;66364;52.622;7.746;2023-06-22T08:29:22;25.30;99.90
77305;DHT22;66364;52.622;7.746;2023-06-22T08:31:23;25.40;96.70
77305;DHT22;66364;52.622;7.746;2023-06-22T08:33:24;25.50;94.70
77305;DHT22;66364;52.622;7.746;2023-06-22T08:35:25;25.40;91.90
77305;DHT22;66364;52.622;7.746;2023-06-22T08:37:26;25.40;94.10
77305;DHT22;66364;52.622;7.746;2023-06-22T08:39:27;25.40;94.30
77305;DHT22;66364;52.622;7.746;2023-06-22T08:41:28;25.40;93.30
77305;DHT22;66364;52.622;7.746;2023-06-22T08:43:29;25.30;94.20
77305;DHT22;66364;52.622;7.746;2023-06-22T08:45:30;25.30;93.10
77305;DHT22;66364;52.622;7.746;2023-06-22T08:47:32;25.30;94.50
77305;DHT22;66364;52.622;7.746;2023-06-22T08:49:35;25.30;93.40
77305;DHT22;66364;52.622;7.746;2023-06-22T08:51:38;25.50;94.10
77305;DHT22;66364;52.622;7.746;2023-06-22T08:53:40;25.70;92.00
77305;DHT22;66364;52.622;7.746;2023-06-22T08:55:43;26.00;90.70
77305;DHT22;66364;52.622;7.746;2023-06-22T08:57:44;25.90;91.30
77305;DHT22;66364;52.622;7.746;2023-06-22T08:59:45;25.80;90.40
77305;DHT22;66364;52.622;7.746;2023-06-22T09:01:47;25.80;90.80
77305;DHT22;66364;52.622;7.746;2023-06-22T09:03:48;25.70;90.90
77305;DHT22;66364;52.622;7.746;2023-06-22T09:05:50;25.70;90.70
77305;DHT22;66364;52.622;7.746;2023-06-22T09:07:52;25.60;90.00
77305;DHT22;66364;52.622;7.746;2023-06-22T09:10:00;25.60;89.40
77305;DHT22;66364;52.622;7.746;2023-06-22T09:12:01;25.50;90.00
77305;DHT22;66364;52.622;7.746;2023-06-22T09:14:02;25.40;89.40
77305;DHT22;66364;52.622;7.746;2023-06-22T09:16:03;25.50;90.90
77305;DHT22;66364;52.622;7.746;2023-06-22T09:18:05;25.60;90.80
77305;DHT22;66364;52.622;7.746;2023-06-22T09:20:08;25.80;91.10
77305;DHT22;66364;52.622;7.746;2023-06-22T09:22:09;26.10;87.40
77305;DHT22;66364;52.622;7.746;2023-06-22T09:24:11;26.40;85.70
77305;DHT22;66364;52.622;7.746;2023-06-22T09:26:13;26.60;86.40
77305;DHT22;66364;52.622;7.746;2023-06-22T09:28:14;26.60;84.50
77305;DHT22;66364;52.622;7.746;2023-06-22T09:30:15;26.30;81.30
77305;DHT22;66364;52.622;7.746;2023-06-22T09:32:16;26.30;82.30
77305;DHT22;66364;52.622;7.746;2023-06-22T09:34:18;26.20;85.20
77305;DHT22;66364;52.622;7.746;2023-06-22T09:36:24;26.10;85.30
77305;DHT22;66364;52.622;7.746;2023-06-22T09:38:23;26.30;84.60
77305;DHT22;66364;52.622;7.746;2023-06-22T09:40:24;26.50;83.60
77305;DHT22;66364;52.622;7.746;2023-06-22T09:42:25;26.50;84.70
77305;DHT22;66364;52.622;7.746;2023-06-22T09:44:27;26.70;85.60
77305;DHT22;66364;52.622;7.746;2023-06-22T09:46:28;26.80;81.30
77305;DHT22;66364;52.622;7.746;2023-06-22T09:48:30;26.90;78.30
77305;DHT22;66364;52.622;7.746;2023-06-22T09:50:32;26.80;79.80
77305;DHT22;66364;52.622;7.746;2023-06-22T09:52:33;26.80;78.20
77305;DHT22;66364;52.622;7.746;2023-06-22T09:54:35;26.70;81.00
77305;DHT22;66364;52.622;7.746;2023-06-22T09:56:36;26.90;76.20
77305;DHT22;66364;52.622;7.746;2023-06-22T09:58:37;27.00;80.40
77305;DHT22;66364;52.622;7.746;2023-06-22T10:00:39;27.20;80.80
77305;DHT22;66364;52.622;7.746;2023-06-22T10:02:41;27.50;76.10
77305;DHT22;66364;52.622;7.746;2023-06-22T10:04:42;27.80;76.20
77305;DHT22;66364;52.622;7.746;2023-06-22T10:06:44;27.70;73.90
77305;DHT22;66364;52.622;7.746;2023-06-22T10:08:46;27.70;75.80
77305;DHT22;66364;52.622;7.746;2023-06-22T10:10:46;27.60;72.70
77305;DHT22;66364;52.622;7.746;2023-06-22T10:12:57;27.30;73.60
77305;DHT22;66364;52.622;7.746;2023-06-22T10:14:58;27.20;75.20
77305;DHT22;66364;52.622;7.746;2023-06-22T10:17:02;27.00;77.40
77305;DHT22;66364;52.622;7.746;2023-06-22T10:19:03;27.00;78.00
77305;DHT22;66364;52.622;7.746;2023-06-22T10:21:04;26.90;74.00
77305;DHT22;66364;52.622;7.746;2023-06-22T10:23:06;26.70;76.40
77305;DHT22;66364;52.622;7.746;2023-06-22T10:25:08;26.40;75.90
77305;DHT22;66364;52.622;7.746;2023-06-22T10:27:08;26.20;78.80
77305;DHT22;66364;52.622;7.746;2023-06-22T10:29:10;26.20;78.90
77305;DHT22;66364;52.622;7.746;2023-06-22T10:31:11;26.20;81.30
77305;DHT22;66364;52.622;7.746;2023-06-22T10:33:12;26.30;81.50
77305;DHT22;66364;52.622;7.746;2023-06-22T10:35:14;26.50;80.20
77305;DHT22;66364;52.622;7.746;2023-06-22T10:37:16;26.50;79.70
77305;DHT22;66364;52.622;7.746;2023-06-22T10:39:18;26.40;79.40
77305;DHT22;66364;52.622;7.746;2023-06-22T10:41:20;26.30;81.30
77305;DHT22;66364;52.622;7.746;2023-06-22T10:43:22;26.20;83.10
77305;DHT22;66364;52.622;7.746;2023-06-22T10:45:23;26.20;84.60
77305;DHT22;66364;52.622;7.746;2023-06-22T10:47:23;26.30;82.30
77305;DHT22;66364;52.622;7.746;2023-06-22T10:49:25;26.30;84.70
77305;DHT22;66364;52.622;7.746;2023-06-22T10:51:26;26.20;84.90
77305;DHT22;66364;52.622;7.746;2023-06-22T10:53:28;26.30;85.80
77305;DHT22;66364;52.622;7.746;2023-06-22T10:55:29;26.30;86.10
77305;DHT22;66364;52.622;7.746;2023-06-22T10:57:32;26.40;89.10
77305;DHT22;66364;52.622;7.746;2023-06-22T10:59:33;26.40;83.00
77305;DHT22;66364;52.622;7.746;2023-06-22T11:01:34;26.40;82.80
77305;DHT22;66364;52.622;7.746;2023-06-22T11:03:36;26.40;83.50
77305;DHT22;66364;52.622;7.746;2023-06-22T11:05:45;26.30;83.70
77305;DHT22;66364;52.622;7.746;2023-06-22T11:07:47;26.30;87.20
77305;DHT22;66364;52.622;7.746;2023-06-22T11:09:58;26.30;87.20
77305;DHT22;66364;52.622;7.746;2023-06-22T11:12:00;26.40;82.80
77305;DHT22;66364;52.622;7.746;2023-06-22T11:14:02;26.40;84.70
77305;DHT22;66364;52.622;7.746;2023-06-22T11:16:04;26.40;86.60
77305;DHT22;66364;52.622;7.746;2023-06-22T11:18:05;26.30;85.80
77305;DHT22;66364;52.622;7.746;2023-06-22T11:20:07;26.20;88.80
77305;DHT22;66364;52.622;7.746;2023-06-22T11:22:09;26.20;83.30
77305;DHT22;66364;52.622;7.746;2023-06-22T11:24:10;26.10;87.90
77305;DHT22;66364;52.622;7.746;2023-06-22T11:26:11;26.00;86.00
77305;DHT22;66364;52.622;7.746;2023-06-22T11:28:12;25.90;86.60
77305;DHT22;66364;52.622;7.746;2023-06-22T11:30:14;25.80;86.90
77305;DHT22;66364;52.622;7.746;2023-06-22T11:32:15;25.70;87.90
77305;DHT22;66364;52.622;7.746;2023-06-22T11:34:16;25.70;88.60
77305;DHT22;66364;52.622;7.746;2023-06-22T11:36:18;25.70;87.50
77305;DHT22;66364;52.622;7.746;2023-06-22T11:38:18;25.70;89.20
77305;DHT22;66364;52.622;7.746;2023-06-22T11:40:19;25.70;88.10
77305;DHT22;66364;52.622;7.746;2023-06-22T11:42:21;25.80;89.80
77305;DHT22;66364;52.622;7.746;2023-06-22T11:44:21;25.70;88.80
77305;DHT22;66364;52.622;7.746;2023-06-22T11:46:22;25.60;89.50
77305;DHT22;66364;52.622;7.746;2023-06-22T11:48:26;25.60;91.70
77305;DHT22;66364;52.622;7.746;2023-06-22T11:50:27;25.50;92.30
77305;DHT22;66364;52.622;7.746;2023-06-22T11:52:29;25.40;93.10
77305;DHT22;66364;52.622;7.746;2023-06-22T11:54:30;25.40;92.60
77305;DHT22;66364;52.622;7.746;2023-06-22T11:56:33;25.30;94.90
77305;DHT22;66364;52.622;7.746;2023-06-22T11:58:33;25.30;94.80
77305;DHT22;66364;52.622;7.746;2023-06-22T12:00:35;25.10;92.70
77305;DHT22;66364;52.622;7.746;2023-06-22T12:02:36;25.20;92.90
77305;DHT22;66364;52.622;7.746;2023-06-22T12:04:37;25.20;94.50
77305;DHT22;66364;52.622;7.746;2023-06-22T12:06:39;25.20;92.80
77305;DHT22;66364;52.622;7.746;2023-06-22T12:08:39;25.20;94.50
77305;DHT22;66364;52.622;7.746;2023-06-22T12:10:41;25.10;93.70
77305;DHT22;66364;52.622;7.746;2023-06-22T12:12:42;25.00;94.20
77305;DHT22;66364;52.622;7.746;2023-06-22T12:14:44;25.00;94.50
77305;DHT22;66364;52.622;7.746;2023-06-22T12:16:44;25.00;94.10
77305;DHT22;66364;52.622;7.746;2023-06-22T12:18:47;25.00;93.10
77305;DHT22;66364;52.622;7.746;2023-06-22T12:20:48;25.00;94.30
77305;DHT22;66364;52.622;7.746;2023-06-22T12:22:49;25.00;95.50
77305;DHT22;66364;52.622;7.746;2023-06-22T12:24:50;24.90;94.30
77305;DHT22;66364;52.622;7.746;2023-06-22T12:26:51;24.90;96.20
77305;DHT22;66364;52.622;7.746;2023-06-22T12:28:52;24.90;95.20
77305;DHT22;66364;52.622;7.746;2023-06-22T12:30:53;24.90;97.10
77305;DHT22;66364;52.622;7.746;2023-06-22T12:32:54;24.90;97.50
77305;DHT22;66364;52.622;7.746;2023-06-22T12:34:55;24.90;95.00
77305;DHT22;66364;52.622;7.746;2023-06-22T12:36:57;25.00;99.40
77305;DHT22;66364;52.622;7.746;2023-06-22T12:38:58;25.00;99.90
77305;DHT22;66364;52.622;7.746;2023-06-22T12:40:59;25.00;98.30
77305;DHT22;66364;52.622;7.746;2023-06-22T12:43:00;25.00;98.90
77305;DHT22;66364;52.622;7.746;2023-06-22T12:45:02;24.90;99.60
77305;DHT22;66364;52.622;7.746;2023-06-22T12:47:03;24.90;99.90
77305;DHT22;66364;52.622;7.746;2023-06-22T12:49:04;24.90;96.50
77305;DHT22;66364;52.622;7.746;2023-06-22T12:51:05;24.90;97.30
77305;DHT22;66364;52.622;7.746;2023-06-22T12:53:06;24.90;99.90
77305;DHT22;66364;52.622;7.746;2023-06-22T12:55:07;25.00;99.60
77305;DHT22;66364;52.622;7.746;2023-06-22T12:57:09;24.90;98.30